Terminal Aerodrome Forecast
Issued by NWS Austin/San Antonio, TX

Home | Current Version | Previous Version | Text Only | Print | Product List | Glossary On
Versions: 1 2 3 4 5 6 7 8 9 10 11 12 13
000
FTUS44 KEWX 050801 AAA
TAFAUS
TAF AMD
KAUS 050801Z 0508/0612 18008KT P6SM OVC015
     FM051300 19014KT P6SM SCT050
     FM060900 19006KT P6SM OVC020=

USA.gov is the U.S. government's official web portal to all federal, state and local government web resources and services.